チャーチル の空港の天気 - METARとTAF

チャーチル空港 ( CYYQ / YYQ ) - カナダ マニトバ州Churchill
飛行場実況気象(Metar)
観測時間05/28 04:00 CDT (05/28 09:00 UTC)
風向・風速南南東 4m/s
視程400m
天気現象氷霧
なし
気温-3℃
湿度100%
気圧1013.6hPa
METARCYYQ 280900Z 16007KT 1/4SM R33/2600V3000FT/N FZFG SKC M03/M03 A2992 RMK SLP136
過去の天気等 Google飛行場航空写真 Wunderground天気予報

過去48時間のMETAR

飛行場予報(TAF)
発表時間: 5/28 02:17 CDT (5/28 07:17 UTC)
予報対象時間: 28日2時 CDT ~ 29日1時 CDT
風向・風速南 3m/s
視程800m
天気現象氷霧
全天の4割程度の雲 雲底高度 60m
28日2時 CDT ~ 28日7時 CDT に一時的に
視程4830m
天気現象もや
なし
28日7時 CDT から
風向・風速南 4m/s
視程10km以上
天気現象もや
なし
28日7時 CDT ~ 28日9時 CDT に一時的に
視程4830m
天気現象もや
28日11時 CDT から
風向・風速南南東 5m/s
視程10km以上
少しの雲 雲底高度 6100m
28日16時 CDT から
風向・風速南南東 5m/s
視程10km以上
少しの雲 雲底高度 760m
TAF AMD CYYQ 280717Z 2807/2906 17006KT 1/2SM FZFG SCT002
TEMPO 2807/2812 3SM BR SKC
FM281200 17008KT 6SM BR SKC
TEMPO 2812/2814 3SM BR
FM281600 16010KT P6SM FEW200
FM282100 16010KT P6SM FEW025 RMK NXT FCST BY 281200Z